Pagina principale
METAR-TAF:

METAR-TAF

Aeroporti :

Parco nazionale Kruger, Sudafrica

latitudine: 25-23-00S, longitudine: 31-06-20E, altezza: 862 m

Osservazione

Il bollettino è stato emesso 35 minuti fa, alle 15:00 UTC
Vento 6 kt da nord-est
Temperature 19°C
Umidità 46%
Pressione 1021 hPa
Visibilità 10 km o più
nessuna nube inferiore a 1500 m e nessun cumulonembo

METAR: FAKN 241500Z 05006KT CAVOK 19/07 Q1021 NOSIG

Ora: 17:35 (15:35 UTC)

Previsione

Il bollettino è stato emesso 6 ore e 35 minuti fa, alle 09:00 UTC
Previsione valida dal 24 alle 10 UTC al 24 alle 18 UTC
Vento 6 kt da nord-est
Visibilità 10 km o più
nessuna nube inferiore a 1500 m e nessun cumulonembo

TAF: FAKN 240900Z 2410/2418 05006KT CAVOK TX23/2413Z TN14/2418Z

Osservazioni e previsioni meteorologiche di più di 4000 aeroporti (messaggi METAR e TAF).

Le stazioni disponibili sono rappresentate dai dischi gialli e rossi sulla carta.

Puntare il mouse per vedere il nome della stazione.

Clicca sopra per visualizzare le osservazioni e previsioni meteorologiche.

Per cambiare la mappa : fare clic sui pulsanti verdi con una croce nera per ingrandire, il pulsante verde con un trattino per diminuire, o sulla freccia verde per le mappe adiacenti.


METAR-TAF: